NRT weather

Narita International Airport
Tokyo, Chiba Prefecture, Japan

Public forecast

Using degrees Celsius for public forecast. Weather courtesy of forecast.io.

METAR (pilot weather report)

Retrieved 2017/09/25 05:30 UTC (0 seconds ago):

RJAA 250530Z 14009KT 9999 FEW020 SCT/// 26/18 Q1013 NOSIG

TAF (pilot weather forecast)

Forecast is more than 6 hours old.

Retrieved 2017/09/24 18:00 UTC (11 hours ago):

TAF RJAA 241706Z 2418/2600 05004KT 9999 FEW020 SCT040 TEMPO 2418/2421 4500 BR BECMG 2422/2500 13010KT